sensor_id;sensor_type;location;lat;lon;timestamp;temperature;humidity
16532;DHT22;66872;63.142;14.482;2023-07-24T00:01:10;18.70;1.00
16532;DHT22;66872;63.142;14.482;2023-07-24T00:03:35;18.70;1.00
16532;DHT22;66872;63.142;14.482;2023-07-24T00:06:01;18.70;1.00
16532;DHT22;66872;63.142;14.482;2023-07-24T00:08:27;18.70;1.00
16532;DHT22;66872;63.142;14.482;2023-07-24T00:10:53;18.70;1.00
16532;DHT22;66872;63.142;14.482;2023-07-24T00:13:18;18.70;1.00
16532;DHT22;66872;63.142;14.482;2023-07-24T00:15:44;18.70;1.00
16532;DHT22;66872;63.142;14.482;2023-07-24T00:18:10;18.70;1.00
16532;DHT22;66872;63.142;14.482;2023-07-24T00:20:35;18.70;1.00
16532;DHT22;66872;63.142;14.482;2023-07-24T00:23:01;18.60;1.00
16532;DHT22;66872;63.142;14.482;2023-07-24T00:25:27;18.60;1.00
16532;DHT22;66872;63.142;14.482;2023-07-24T00:27:52;18.60;1.00
16532;DHT22;66872;63.142;14.482;2023-07-24T00:30:18;18.60;1.00
16532;DHT22;66872;63.142;14.482;2023-07-24T00:32:44;18.60;1.00
16532;DHT22;66872;63.142;14.482;2023-07-24T00:35:09;18.60;1.00
16532;DHT22;66872;63.142;14.482;2023-07-24T00:37:35;18.60;1.00
16532;DHT22;66872;63.142;14.482;2023-07-24T00:40:02;18.60;1.00
16532;DHT22;66872;63.142;14.482;2023-07-24T00:42:28;18.60;1.00
16532;DHT22;66872;63.142;14.482;2023-07-24T00:44:53;18.50;1.00
16532;DHT22;66872;63.142;14.482;2023-07-24T00:47:19;18.50;1.00
16532;DHT22;66872;63.142;14.482;2023-07-24T00:49:45;18.50;1.00
16532;DHT22;66872;63.142;14.482;2023-07-24T00:52:11;18.50;1.00
16532;DHT22;66872;63.142;14.482;2023-07-24T00:54:37;18.50;1.00
16532;DHT22;66872;63.142;14.482;2023-07-24T00:57:04;18.50;1.00
16532;DHT22;66872;63.142;14.482;2023-07-24T00:59:31;18.50;1.00
16532;DHT22;66872;63.142;14.482;2023-07-24T01:01:56;18.50;1.00
16532;DHT22;66872;63.142;14.482;2023-07-24T01:04:22;18.50;1.00
16532;DHT22;66872;63.142;14.482;2023-07-24T01:06:49;18.50;1.00
16532;DHT22;66872;63.142;14.482;2023-07-24T01:09:15;18.40;1.00
16532;DHT22;66872;63.142;14.482;2023-07-24T01:12:02;18.40;1.00
16532;DHT22;66872;63.142;14.482;2023-07-24T01:14:39;18.40;1.00
16532;DHT22;66872;63.142;14.482;2023-07-24T01:17:07;18.40;1.00
16532;DHT22;66872;63.142;14.482;2023-07-24T01:19:42;18.40;1.00
16532;DHT22;66872;63.142;14.482;2023-07-24T01:27:43;18.40;1.00
16532;DHT22;66872;63.142;14.482;2023-07-24T01:30:10;18.40;1.00
16532;DHT22;66872;63.142;14.482;2023-07-24T01:32:37;18.40;1.00
16532;DHT22;66872;63.142;14.482;2023-07-24T01:35:03;18.30;1.00
16532;DHT22;66872;63.142;14.482;2023-07-24T01:37:31;18.30;1.00
16532;DHT22;66872;63.142;14.482;2023-07-24T01:39:57;18.30;1.00
16532;DHT22;66872;63.142;14.482;2023-07-24T01:42:24;18.30;1.00
16532;DHT22;66872;63.142;14.482;2023-07-24T01:44:54;18.30;1.00
16532;DHT22;66872;63.142;14.482;2023-07-24T01:47:20;18.30;1.00
16532;DHT22;66872;63.142;14.482;2023-07-24T01:49:46;18.30;1.00
16532;DHT22;66872;63.142;14.482;2023-07-24T01:52:12;18.30;1.00
16532;DHT22;66872;63.142;14.482;2023-07-24T01:54:37;18.30;1.00
16532;DHT22;66872;63.142;14.482;2023-07-24T01:57:03;18.20;1.00
16532;DHT22;66872;63.142;14.482;2023-07-24T01:59:29;18.20;1.00
16532;DHT22;66872;63.142;14.482;2023-07-24T02:01:55;18.20;1.00
16532;DHT22;66872;63.142;14.482;2023-07-24T02:04:20;18.20;1.00
16532;DHT22;66872;63.142;14.482;2023-07-24T02:06:50;18.20;1.00
16532;DHT22;66872;63.142;14.482;2023-07-24T02:09:20;18.30;1.00
16532;DHT22;66872;63.142;14.482;2023-07-24T02:11:45;18.30;1.00
16532;DHT22;66872;63.142;14.482;2023-07-24T02:14:13;18.20;1.00
16532;DHT22;66872;63.142;14.482;2023-07-24T02:16:39;18.20;1.00
16532;DHT22;66872;63.142;14.482;2023-07-24T02:19:05;18.20;1.00
16532;DHT22;66872;63.142;14.482;2023-07-24T02:21:31;18.20;1.00
16532;DHT22;66872;63.142;14.482;2023-07-24T02:23:57;18.20;1.00
16532;DHT22;66872;63.142;14.482;2023-07-24T02:26:22;18.20;1.00
16532;DHT22;66872;63.142;14.482;2023-07-24T02:28:48;18.20;1.00
16532;DHT22;66872;63.142;14.482;2023-07-24T02:31:14;18.20;1.00
16532;DHT22;66872;63.142;14.482;2023-07-24T02:33:39;18.30;1.00
16532;DHT22;66872;63.142;14.482;2023-07-24T02:36:05;18.20;1.00
16532;DHT22;66872;63.142;14.482;2023-07-24T02:38:31;18.20;1.00
16532;DHT22;66872;63.142;14.482;2023-07-24T02:40:57;18.20;1.00
16532;DHT22;66872;63.142;14.482;2023-07-24T02:43:22;18.20;1.00
16532;DHT22;66872;63.142;14.482;2023-07-24T02:45:48;18.20;1.00
16532;DHT22;66872;63.142;14.482;2023-07-24T02:48:14;18.20;1.00
16532;DHT22;66872;63.142;14.482;2023-07-24T02:50:39;18.20;1.00
16532;DHT22;66872;63.142;14.482;2023-07-24T02:53:05;18.20;1.00
16532;DHT22;66872;63.142;14.482;2023-07-24T02:55:31;18.30;1.00
16532;DHT22;66872;63.142;14.482;2023-07-24T02:57:57;18.20;1.00
16532;DHT22;66872;63.142;14.482;2023-07-24T03:00:22;18.30;1.00
16532;DHT22;66872;63.142;14.482;2023-07-24T03:02:48;18.30;1.00
16532;DHT22;66872;63.142;14.482;2023-07-24T03:05:14;18.30;1.00
16532;DHT22;66872;63.142;14.482;2023-07-24T03:07:39;18.30;1.00
16532;DHT22;66872;63.142;14.482;2023-07-24T03:10:05;18.30;1.00
16532;DHT22;66872;63.142;14.482;2023-07-24T03:12:31;18.30;1.00
16532;DHT22;66872;63.142;14.482;2023-07-24T03:14:56;18.30;1.00
16532;DHT22;66872;63.142;14.482;2023-07-24T03:17:23;18.30;1.00
16532;DHT22;66872;63.142;14.482;2023-07-24T03:19:49;18.30;1.00
16532;DHT22;66872;63.142;14.482;2023-07-24T03:22:15;18.30;1.00
16532;DHT22;66872;63.142;14.482;2023-07-24T03:24:40;18.30;1.00
16532;DHT22;66872;63.142;14.482;2023-07-24T03:27:06;18.30;1.00
16532;DHT22;66872;63.142;14.482;2023-07-24T03:29:32;18.30;1.00
16532;DHT22;66872;63.142;14.482;2023-07-24T03:31:58;18.30;1.00
16532;DHT22;66872;63.142;14.482;2023-07-24T03:34:23;18.40;1.00
16532;DHT22;66872;63.142;14.482;2023-07-24T03:36:49;18.40;1.00
16532;DHT22;66872;63.142;14.482;2023-07-24T03:39:15;18.40;1.00
16532;DHT22;66872;63.142;14.482;2023-07-24T03:41:41;18.40;1.00
16532;DHT22;66872;63.142;14.482;2023-07-24T03:44:08;18.40;1.00
16532;DHT22;66872;63.142;14.482;2023-07-24T03:46:33;18.40;1.00
16532;DHT22;66872;63.142;14.482;2023-07-24T03:48:59;18.40;1.00
16532;DHT22;66872;63.142;14.482;2023-07-24T03:51:25;18.50;1.00
16532;DHT22;66872;63.142;14.482;2023-07-24T03:53:50;18.50;1.00
16532;DHT22;66872;63.142;14.482;2023-07-24T03:56:16;18.50;1.00
16532;DHT22;66872;63.142;14.482;2023-07-24T03:58:42;18.50;1.00
16532;DHT22;66872;63.142;14.482;2023-07-24T04:01:08;18.50;1.00
16532;DHT22;66872;63.142;14.482;2023-07-24T04:03:34;18.50;1.00
16532;DHT22;66872;63.142;14.482;2023-07-24T04:06:00;18.50;1.00
16532;DHT22;66872;63.142;14.482;2023-07-24T04:08:25;18.60;1.00
16532;DHT22;66872;63.142;14.482;2023-07-24T04:10:51;18.60;1.00
16532;DHT22;66872;63.142;14.482;2023-07-24T04:13:17;18.60;1.00
16532;DHT22;66872;63.142;14.482;2023-07-24T04:15:43;18.60;1.00
16532;DHT22;66872;63.142;14.482;2023-07-24T04:18:10;18.60;1.00
16532;DHT22;66872;63.142;14.482;2023-07-24T04:20:35;18.60;1.00
16532;DHT22;66872;63.142;14.482;2023-07-24T04:23:01;18.60;1.00
16532;DHT22;66872;63.142;14.482;2023-07-24T04:25:27;18.60;1.00
16532;DHT22;66872;63.142;14.482;2023-07-24T04:27:52;18.70;1.00
16532;DHT22;66872;63.142;14.482;2023-07-24T04:30:18;18.70;1.00
16532;DHT22;66872;63.142;14.482;2023-07-24T04:32:45;18.70;1.00
16532;DHT22;66872;63.142;14.482;2023-07-24T04:35:11;18.70;1.00
16532;DHT22;66872;63.142;14.482;2023-07-24T04:37:37;18.70;1.00
16532;DHT22;66872;63.142;14.482;2023-07-24T04:40:04;18.70;1.00
16532;DHT22;66872;63.142;14.482;2023-07-24T04:42:30;18.70;1.00
16532;DHT22;66872;63.142;14.482;2023-07-24T04:44:55;18.70;1.00
16532;DHT22;66872;63.142;14.482;2023-07-24T04:47:21;18.70;1.00
16532;DHT22;66872;63.142;14.482;2023-07-24T04:49:47;18.70;1.00
16532;DHT22;66872;63.142;14.482;2023-07-24T04:52:12;18.80;1.00
16532;DHT22;66872;63.142;14.482;2023-07-24T04:54:38;18.80;1.00
16532;DHT22;66872;63.142;14.482;2023-07-24T04:57:04;18.80;1.00
16532;DHT22;66872;63.142;14.482;2023-07-24T04:59:29;18.80;1.00
16532;DHT22;66872;63.142;14.482;2023-07-24T05:01:55;18.80;1.00
16532;DHT22;66872;63.142;14.482;2023-07-24T05:04:21;18.90;1.00
16532;DHT22;66872;63.142;14.482;2023-07-24T05:06:47;18.90;1.00
16532;DHT22;66872;63.142;14.482;2023-07-24T05:09:12;18.90;1.00
16532;DHT22;66872;63.142;14.482;2023-07-24T05:11:40;18.90;1.00
16532;DHT22;66872;63.142;14.482;2023-07-24T05:14:05;19.00;1.00
16532;DHT22;66872;63.142;14.482;2023-07-24T05:16:31;19.00;1.00
16532;DHT22;66872;63.142;14.482;2023-07-24T05:18:56;19.10;1.00
16532;DHT22;66872;63.142;14.482;2023-07-24T05:21:22;19.10;1.00
16532;DHT22;66872;63.142;14.482;2023-07-24T05:23:48;19.10;1.00
16532;DHT22;66872;63.142;14.482;2023-07-24T05:26:13;19.10;1.00
16532;DHT22;66872;63.142;14.482;2023-07-24T05:28:39;19.10;1.00
16532;DHT22;66872;63.142;14.482;2023-07-24T05:31:05;19.10;1.00
16532;DHT22;66872;63.142;14.482;2023-07-24T05:33:31;19.10;1.00
16532;DHT22;66872;63.142;14.482;2023-07-24T05:36:01;19.10;1.00
16532;DHT22;66872;63.142;14.482;2023-07-24T05:38:27;19.10;1.00
16532;DHT22;66872;63.142;14.482;2023-07-24T05:40:57;19.10;1.00
16532;DHT22;66872;63.142;14.482;2023-07-24T05:43:23;19.10;1.00
16532;DHT22;66872;63.142;14.482;2023-07-24T05:45:52;19.00;1.00
16532;DHT22;66872;63.142;14.482;2023-07-24T05:48:18;19.10;1.00
16532;DHT22;66872;63.142;14.482;2023-07-24T05:50:44;19.00;1.00
16532;DHT22;66872;63.142;14.482;2023-07-24T05:53:09;19.00;1.00
16532;DHT22;66872;63.142;14.482;2023-07-24T05:55:35;19.10;1.00
16532;DHT22;66872;63.142;14.482;2023-07-24T05:58:01;19.10;1.00
16532;DHT22;66872;63.142;14.482;2023-07-24T06:00:26;19.10;1.00
16532;DHT22;66872;63.142;14.482;2023-07-24T06:02:53;19.10;1.00
16532;DHT22;66872;63.142;14.482;2023-07-24T06:05:19;19.10;1.00
16532;DHT22;66872;63.142;14.482;2023-07-24T06:07:46;19.10;1.00
16532;DHT22;66872;63.142;14.482;2023-07-24T06:10:12;19.20;1.00
16532;DHT22;66872;63.142;14.482;2023-07-24T06:12:37;19.10;1.00
16532;DHT22;66872;63.142;14.482;2023-07-24T06:15:03;19.10;1.00
16532;DHT22;66872;63.142;14.482;2023-07-24T06:17:29;19.10;1.00
16532;DHT22;66872;63.142;14.482;2023-07-24T06:19:55;19.10;1.00
16532;DHT22;66872;63.142;14.482;2023-07-24T06:22:21;19.10;1.00
16532;DHT22;66872;63.142;14.482;2023-07-24T06:24:46;19.10;1.00
16532;DHT22;66872;63.142;14.482;2023-07-24T06:27:12;19.00;1.00
16532;DHT22;66872;63.142;14.482;2023-07-24T06:29:38;19.00;1.00
16532;DHT22;66872;63.142;14.482;2023-07-24T06:32:04;19.00;1.00
16532;DHT22;66872;63.142;14.482;2023-07-24T06:34:30;19.00;1.00
16532;DHT22;66872;63.142;14.482;2023-07-24T06:36:55;19.00;1.00
16532;DHT22;66872;63.142;14.482;2023-07-24T06:39:21;18.90;1.00
16532;DHT22;66872;63.142;14.482;2023-07-24T06:41:47;18.90;1.00
16532;DHT22;66872;63.142;14.482;2023-07-24T06:44:12;18.90;1.00
16532;DHT22;66872;63.142;14.482;2023-07-24T06:46:38;18.90;1.00
16532;DHT22;66872;63.142;14.482;2023-07-24T06:49:04;18.90;1.00
16532;DHT22;66872;63.142;14.482;2023-07-24T06:51:29;18.90;1.00
16532;DHT22;66872;63.142;14.482;2023-07-24T06:53:55;18.90;1.00
16532;DHT22;66872;63.142;14.482;2023-07-24T06:56:21;18.90;1.00
16532;DHT22;66872;63.142;14.482;2023-07-24T06:58:46;19.00;1.00
16532;DHT22;66872;63.142;14.482;2023-07-24T07:01:12;19.10;1.00
16532;DHT22;66872;63.142;14.482;2023-07-24T07:03:38;19.10;1.00
16532;DHT22;66872;63.142;14.482;2023-07-24T07:06:03;19.10;1.00
16532;DHT22;66872;63.142;14.482;2023-07-24T07:08:32;19.10;1.00
16532;DHT22;66872;63.142;14.482;2023-07-24T07:10:59;19.10;1.00
16532;DHT22;66872;63.142;14.482;2023-07-24T07:13:25;19.20;1.00
16532;DHT22;66872;63.142;14.482;2023-07-24T07:15:51;19.30;1.00
16532;DHT22;66872;63.142;14.482;2023-07-24T07:18:16;19.50;1.00
16532;DHT22;66872;63.142;14.482;2023-07-24T07:20:46;19.60;1.00
16532;DHT22;66872;63.142;14.482;2023-07-24T07:23:12;19.60;1.00
16532;DHT22;66872;63.142;14.482;2023-07-24T07:25:38;19.60;1.00
16532;DHT22;66872;63.142;14.482;2023-07-24T07:28:03;19.60;1.00
16532;DHT22;66872;63.142;14.482;2023-07-24T07:30:29;19.60;1.00
16532;DHT22;66872;63.142;14.482;2023-07-24T07:32:55;19.70;1.00
16532;DHT22;66872;63.142;14.482;2023-07-24T07:35:20;19.70;1.00
16532;DHT22;66872;63.142;14.482;2023-07-24T07:37:46;19.80;1.00
16532;DHT22;66872;63.142;14.482;2023-07-24T07:40:12;19.80;1.00
16532;DHT22;66872;63.142;14.482;2023-07-24T07:42:37;19.90;1.00
16532;DHT22;66872;63.142;14.482;2023-07-24T07:45:04;20.00;1.00
16532;DHT22;66872;63.142;14.482;2023-07-24T07:47:30;20.10;1.00
16532;DHT22;66872;63.142;14.482;2023-07-24T07:49:55;20.20;1.00
16532;DHT22;66872;63.142;14.482;2023-07-24T07:52:21;20.40;1.00
16532;DHT22;66872;63.142;14.482;2023-07-24T07:54:50;20.50;1.00
16532;DHT22;66872;63.142;14.482;2023-07-24T07:57:16;20.70;1.00
16532;DHT22;66872;63.142;14.482;2023-07-24T07:59:42;20.80;1.00
16532;DHT22;66872;63.142;14.482;2023-07-24T08:02:08;20.80;1.00
16532;DHT22;66872;63.142;14.482;2023-07-24T08:04:34;20.80;1.00
16532;DHT22;66872;63.142;14.482;2023-07-24T08:06:59;20.90;1.00
16532;DHT22;66872;63.142;14.482;2023-07-24T08:09:25;20.90;1.00
16532;DHT22;66872;63.142;14.482;2023-07-24T08:11:51;21.00;1.00
16532;DHT22;66872;63.142;14.482;2023-07-24T08:14:17;21.00;1.00
16532;DHT22;66872;63.142;14.482;2023-07-24T08:16:43;21.00;1.00
16532;DHT22;66872;63.142;14.482;2023-07-24T08:19:09;21.00;1.00
16532;DHT22;66872;63.142;14.482;2023-07-24T08:21:34;21.00;1.00
16532;DHT22;66872;63.142;14.482;2023-07-24T08:24:01;21.10;1.00
16532;DHT22;66872;63.142;14.482;2023-07-24T08:26:28;21.10;1.00
16532;DHT22;66872;63.142;14.482;2023-07-24T08:28:53;21.20;1.00
16532;DHT22;66872;63.142;14.482;2023-07-24T08:31:19;21.20;1.00
16532;DHT22;66872;63.142;14.482;2023-07-24T08:33:45;21.30;1.00
16532;DHT22;66872;63.142;14.482;2023-07-24T08:36:11;21.30;1.00
16532;DHT22;66872;63.142;14.482;2023-07-24T08:38:40;21.40;1.00
16532;DHT22;66872;63.142;14.482;2023-07-24T08:41:07;21.40;1.00
16532;DHT22;66872;63.142;14.482;2023-07-24T08:43:34;21.40;1.00
16532;DHT22;66872;63.142;14.482;2023-07-24T08:46:01;21.40;1.00
16532;DHT22;66872;63.142;14.482;2023-07-24T08:48:30;21.50;1.00
16532;DHT22;66872;63.142;14.482;2023-07-24T08:50:56;21.50;1.00
16532;DHT22;66872;63.142;14.482;2023-07-24T08:53:23;21.50;1.00
16532;DHT22;66872;63.142;14.482;2023-07-24T08:55:49;21.50;1.00
16532;DHT22;66872;63.142;14.482;2023-07-24T08:58:17;21.50;1.00
16532;DHT22;66872;63.142;14.482;2023-07-24T09:00:42;21.50;1.00
16532;DHT22;66872;63.142;14.482;2023-07-24T09:03:08;21.50;1.00
16532;DHT22;66872;63.142;14.482;2023-07-24T09:05:34;21.50;1.00
16532;DHT22;66872;63.142;14.482;2023-07-24T09:07:59;21.50;1.00
16532;DHT22;66872;63.142;14.482;2023-07-24T09:10:26;21.50;1.00
16532;DHT22;66872;63.142;14.482;2023-07-24T09:12:52;21.50;1.00
16532;DHT22;66872;63.142;14.482;2023-07-24T09:15:17;21.50;1.00
16532;DHT22;66872;63.142;14.482;2023-07-24T09:17:50;21.40;1.00
16532;DHT22;66872;63.142;14.482;2023-07-24T09:20:17;21.40;1.00
16532;DHT22;66872;63.142;14.482;2023-07-24T09:22:53;21.40;1.00
16532;DHT22;66872;63.142;14.482;2023-07-24T09:25:30;21.40;1.00
16532;DHT22;66872;63.142;14.482;2023-07-24T09:28:00;21.40;1.00
16532;DHT22;66872;63.142;14.482;2023-07-24T09:30:26;21.40;1.00
16532;DHT22;66872;63.142;14.482;2023-07-24T09:32:52;21.40;1.00
16532;DHT22;66872;63.142;14.482;2023-07-24T09:35:19;21.30;1.00
16532;DHT22;66872;63.142;14.482;2023-07-24T09:37:45;21.30;1.00
16532;DHT22;66872;63.142;14.482;2023-07-24T09:40:13;21.30;1.00
16532;DHT22;66872;63.142;14.482;2023-07-24T09:42:39;21.30;1.00
16532;DHT22;66872;63.142;14.482;2023-07-24T09:45:08;21.30;1.00
16532;DHT22;66872;63.142;14.482;2023-07-24T09:47:34;21.20;1.00
16532;DHT22;66872;63.142;14.482;2023-07-24T09:50:03;21.20;1.00
16532;DHT22;66872;63.142;14.482;2023-07-24T09:52:30;21.20;1.00
16532;DHT22;66872;63.142;14.482;2023-07-24T09:55:01;21.20;1.00
16532;DHT22;66872;63.142;14.482;2023-07-24T09:57:28;21.20;1.00
16532;DHT22;66872;63.142;14.482;2023-07-24T09:59:56;21.10;1.00
16532;DHT22;66872;63.142;14.482;2023-07-24T10:02:23;21.10;1.00
16532;DHT22;66872;63.142;14.482;2023-07-24T10:04:49;21.10;1.00
16532;DHT22;66872;63.142;14.482;2023-07-24T10:07:15;21.00;1.00
16532;DHT22;66872;63.142;14.482;2023-07-24T10:09:43;21.00;1.00
16532;DHT22;66872;63.142;14.482;2023-07-24T10:12:09;20.90;1.00
16532;DHT22;66872;63.142;14.482;2023-07-24T10:14:36;20.90;1.00
16532;DHT22;66872;63.142;14.482;2023-07-24T10:17:03;20.90;1.00
16532;DHT22;66872;63.142;14.482;2023-07-24T10:19:42;20.80;1.00
16532;DHT22;66872;63.142;14.482;2023-07-24T10:22:18;20.80;1.00
16532;DHT22;66872;63.142;14.482;2023-07-24T10:24:47;20.70;1.00
16532;DHT22;66872;63.142;14.482;2023-07-24T10:27:13;20.70;1.00
16532;DHT22;66872;63.142;14.482;2023-07-24T10:29:38;20.60;1.00
16532;DHT22;66872;63.142;14.482;2023-07-24T10:32:24;20.60;1.00
16532;DHT22;66872;63.142;14.482;2023-07-24T10:35:09;20.60;1.00
16532;DHT22;66872;63.142;14.482;2023-07-24T10:37:38;20.50;1.00
16532;DHT22;66872;63.142;14.482;2023-07-24T10:40:07;20.50;1.00
16532;DHT22;66872;63.142;14.482;2023-07-24T10:42:43;20.40;1.00
16532;DHT22;66872;63.142;14.482;2023-07-24T10:45:09;20.40;1.00
16532;DHT22;66872;63.142;14.482;2023-07-24T10:47:36;20.40;1.00
16532;DHT22;66872;63.142;14.482;2023-07-24T10:50:02;20.30;1.00
16532;DHT22;66872;63.142;14.482;2023-07-24T10:52:31;20.30;1.00
16532;DHT22;66872;63.142;14.482;2023-07-24T10:55:01;20.30;1.00
16532;DHT22;66872;63.142;14.482;2023-07-24T10:57:28;20.30;1.00
16532;DHT22;66872;63.142;14.482;2023-07-24T10:59:54;20.20;1.00
16532;DHT22;66872;63.142;14.482;2023-07-24T11:02:20;20.20;1.00
16532;DHT22;66872;63.142;14.482;2023-07-24T11:04:46;20.20;1.00
16532;DHT22;66872;63.142;14.482;2023-07-24T11:07:12;20.20;1.00
16532;DHT22;66872;63.142;14.482;2023-07-24T11:09:39;20.20;1.00
16532;DHT22;66872;63.142;14.482;2023-07-24T11:12:11;20.10;1.00
16532;DHT22;66872;63.142;14.482;2023-07-24T11:14:48;20.20;1.00
16532;DHT22;66872;63.142;14.482;2023-07-24T11:17:14;20.10;1.00
16532;DHT22;66872;63.142;14.482;2023-07-24T11:19:40;20.10;1.00
16532;DHT22;66872;63.142;14.482;2023-07-24T11:22:06;20.20;1.00
16532;DHT22;66872;63.142;14.482;2023-07-24T11:24:32;20.20;1.00
16532;DHT22;66872;63.142;14.482;2023-07-24T11:26:58;20.10;1.00
16532;DHT22;66872;63.142;14.482;2023-07-24T11:29:24;20.10;1.00
16532;DHT22;66872;63.142;14.482;2023-07-24T11:31:55;20.10;1.00
16532;DHT22;66872;63.142;14.482;2023-07-24T11:34:22;20.10;1.00
16532;DHT22;66872;63.142;14.482;2023-07-24T11:36:48;20.00;1.00
16532;DHT22;66872;63.142;14.482;2023-07-24T11:39:24;20.00;1.00
16532;DHT22;66872;63.142;14.482;2023-07-24T11:41:50;20.00;1.00
16532;DHT22;66872;63.142;14.482;2023-07-24T11:44:15;20.00;1.00
16532;DHT22;66872;63.142;14.482;2023-07-24T11:46:42;20.00;1.00
16532;DHT22;66872;63.142;14.482;2023-07-24T11:49:14;20.00;1.00
16532;DHT22;66872;63.142;14.482;2023-07-24T11:51:40;20.00;1.00
16532;DHT22;66872;63.142;14.482;2023-07-24T11:54:08;20.00;1.00
16532;DHT22;66872;63.142;14.482;2023-07-24T11:56:34;19.90;1.00
16532;DHT22;66872;63.142;14.482;2023-07-24T11:59:13;20.00;1.00
16532;DHT22;66872;63.142;14.482;2023-07-24T12:01:39;19.90;1.00
16532;DHT22;66872;63.142;14.482;2023-07-24T12:04:05;19.90;1.00
16532;DHT22;66872;63.142;14.482;2023-07-24T12:06:31;19.90;1.00
16532;DHT22;66872;63.142;14.482;2023-07-24T12:09:04;19.90;1.00
16532;DHT22;66872;63.142;14.482;2023-07-24T12:11:31;19.90;1.00
16532;DHT22;66872;63.142;14.482;2023-07-24T12:13:57;19.90;1.00
16532;DHT22;66872;63.142;14.482;2023-07-24T12:16:22;19.90;1.00
16532;DHT22;66872;63.142;14.482;2023-07-24T12:18:48;19.90;1.00
16532;DHT22;66872;63.142;14.482;2023-07-24T12:21:14;19.90;1.00
16532;DHT22;66872;63.142;14.482;2023-07-24T12:23:40;19.90;1.00
16532;DHT22;66872;63.142;14.482;2023-07-24T12:26:05;19.90;1.00
16532;DHT22;66872;63.142;14.482;2023-07-24T12:28:31;19.90;1.00
16532;DHT22;66872;63.142;14.482;2023-07-24T12:30:57;19.90;1.00
16532;DHT22;66872;63.142;14.482;2023-07-24T12:33:22;19.90;1.00
16532;DHT22;66872;63.142;14.482;2023-07-24T12:35:52;19.90;1.00
16532;DHT22;66872;63.142;14.482;2023-07-24T12:38:18;19.90;1.00
16532;DHT22;66872;63.142;14.482;2023-07-24T12:40:44;19.90;1.00
16532;DHT22;66872;63.142;14.482;2023-07-24T12:43:10;19.90;1.00
16532;DHT22;66872;63.142;14.482;2023-07-24T12:45:35;19.90;1.00
16532;DHT22;66872;63.142;14.482;2023-07-24T12:48:01;19.90;1.00
16532;DHT22;66872;63.142;14.482;2023-07-24T12:50:27;19.90;1.00
16532;DHT22;66872;63.142;14.482;2023-07-24T12:52:52;19.90;1.00
16532;DHT22;66872;63.142;14.482;2023-07-24T12:55:18;19.90;1.00
16532;DHT22;66872;63.142;14.482;2023-07-24T12:57:44;20.00;1.00
16532;DHT22;66872;63.142;14.482;2023-07-24T13:00:10;20.00;1.00
16532;DHT22;66872;63.142;14.482;2023-07-24T13:02:36;20.00;1.00
16532;DHT22;66872;63.142;14.482;2023-07-24T13:05:01;20.00;1.00
16532;DHT22;66872;63.142;14.482;2023-07-24T13:07:27;20.00;1.00
16532;DHT22;66872;63.142;14.482;2023-07-24T13:09:54;20.00;1.00
16532;DHT22;66872;63.142;14.482;2023-07-24T13:12:20;20.00;1.00
16532;DHT22;66872;63.142;14.482;2023-07-24T13:14:46;20.00;1.00
16532;DHT22;66872;63.142;14.482;2023-07-24T13:17:12;20.00;1.00
16532;DHT22;66872;63.142;14.482;2023-07-24T13:19:38;20.00;1.00
16532;DHT22;66872;63.142;14.482;2023-07-24T13:22:03;20.00;1.00
16532;DHT22;66872;63.142;14.482;2023-07-24T13:24:29;20.00;1.00
16532;DHT22;66872;63.142;14.482;2023-07-24T13:26:55;20.00;1.00
16532;DHT22;66872;63.142;14.482;2023-07-24T13:29:21;20.10;1.00
16532;DHT22;66872;63.142;14.482;2023-07-24T13:31:46;20.00;1.00
16532;DHT22;66872;63.142;14.482;2023-07-24T13:34:12;20.00;1.00
16532;DHT22;66872;63.142;14.482;2023-07-24T13:36:37;20.00;1.00
16532;DHT22;66872;63.142;14.482;2023-07-24T13:39:03;20.00;1.00
16532;DHT22;66872;63.142;14.482;2023-07-24T13:41:29;20.00;1.00
16532;DHT22;66872;63.142;14.482;2023-07-24T13:43:55;20.10;1.00
16532;DHT22;66872;63.142;14.482;2023-07-24T13:46:20;20.10;1.00
16532;DHT22;66872;63.142;14.482;2023-07-24T13:48:46;20.10;1.00
16532;DHT22;66872;63.142;14.482;2023-07-24T13:51:12;20.10;1.00
16532;DHT22;66872;63.142;14.482;2023-07-24T13:53:37;20.10;1.00
16532;DHT22;66872;63.142;14.482;2023-07-24T13:56:03;20.10;1.00
16532;DHT22;66872;63.142;14.482;2023-07-24T13:58:29;20.10;1.00
16532;DHT22;66872;63.142;14.482;2023-07-24T14:00:54;20.10;1.00
16532;DHT22;66872;63.142;14.482;2023-07-24T14:03:20;20.20;1.00
16532;DHT22;66872;63.142;14.482;2023-07-24T14:05:46;20.20;1.00
16532;DHT22;66872;63.142;14.482;2023-07-24T14:08:11;20.20;1.00
16532;DHT22;66872;63.142;14.482;2023-07-24T14:10:37;20.20;1.00
16532;DHT22;66872;63.142;14.482;2023-07-24T14:13:03;20.20;1.00
16532;DHT22;66872;63.142;14.482;2023-07-24T14:15:29;20.30;1.00
16532;DHT22;66872;63.142;14.482;2023-07-24T14:17:55;20.30;1.00
16532;DHT22;66872;63.142;14.482;2023-07-24T14:20:21;20.30;1.00
16532;DHT22;66872;63.142;14.482;2023-07-24T14:22:46;20.30;1.00
16532;DHT22;66872;63.142;14.482;2023-07-24T14:25:12;20.40;1.00
16532;DHT22;66872;63.142;14.482;2023-07-24T14:27:38;20.40;1.00
16532;DHT22;66872;63.142;14.482;2023-07-24T14:30:04;20.40;1.00
16532;DHT22;66872;63.142;14.482;2023-07-24T14:32:30;20.40;1.00
16532;DHT22;66872;63.142;14.482;2023-07-24T14:34:55;20.40;1.00
16532;DHT22;66872;63.142;14.482;2023-07-24T14:37:21;20.40;1.00
16532;DHT22;66872;63.142;14.482;2023-07-24T14:39:47;20.50;1.00
16532;DHT22;66872;63.142;14.482;2023-07-24T14:42:12;20.40;1.00
16532;DHT22;66872;63.142;14.482;2023-07-24T14:44:38;20.40;1.00
16532;DHT22;66872;63.142;14.482;2023-07-24T14:47:04;20.50;1.00
16532;DHT22;66872;63.142;14.482;2023-07-24T14:49:30;20.50;1.00
16532;DHT22;66872;63.142;14.482;2023-07-24T14:51:56;20.50;1.00
16532;DHT22;66872;63.142;14.482;2023-07-24T14:54:22;20.50;1.00
16532;DHT22;66872;63.142;14.482;2023-07-24T14:56:47;20.50;1.00
16532;DHT22;66872;63.142;14.482;2023-07-24T14:59:13;20.50;1.00
16532;DHT22;66872;63.142;14.482;2023-07-24T15:01:38;20.50;1.00
16532;DHT22;66872;63.142;14.482;2023-07-24T15:04:04;20.50;1.00
16532;DHT22;66872;63.142;14.482;2023-07-24T15:06:30;20.50;1.00
16532;DHT22;66872;63.142;14.482;2023-07-24T15:08:57;20.50;1.00
16532;DHT22;66872;63.142;14.482;2023-07-24T15:11:23;20.50;1.00
16532;DHT22;66872;63.142;14.482;2023-07-24T15:13:51;20.50;1.00
16532;DHT22;66872;63.142;14.482;2023-07-24T15:16:17;20.60;1.00
16532;DHT22;66872;63.142;14.482;2023-07-24T15:18:43;20.60;1.00
16532;DHT22;66872;63.142;14.482;2023-07-24T15:21:09;20.60;1.00
16532;DHT22;66872;63.142;14.482;2023-07-24T15:23:35;20.60;1.00
16532;DHT22;66872;63.142;14.482;2023-07-24T15:26:01;20.60;1.00
16532;DHT22;66872;63.142;14.482;2023-07-24T15:28:26;20.60;1.00
16532;DHT22;66872;63.142;14.482;2023-07-24T15:30:52;20.70;1.00